sensor_id;sensor_type;location;lat;lon;timestamp;temperature;humidity
7455;HTU21D;3769;51.208;4.454;2024-03-22T00:04:09;12.5;98.1
7455;HTU21D;3769;51.208;4.454;2024-03-22T00:09:09;12.4;98.1
7455;HTU21D;3769;51.208;4.454;2024-03-22T00:14:09;12.5;98.1
7455;HTU21D;3769;51.208;4.454;2024-03-22T00:19:09;12.4;98.1
7455;HTU21D;3769;51.208;4.454;2024-03-22T00:24:09;12.4;98.1
7455;HTU21D;3769;51.208;4.454;2024-03-22T00:29:09;12.5;98.1
7455;HTU21D;3769;51.208;4.454;2024-03-22T00:34:09;12.4;98.1
7455;HTU21D;3769;51.208;4.454;2024-03-22T00:39:09;12.4;98.1
7455;HTU21D;3769;51.208;4.454;2024-03-22T00:44:09;12.3;98.1
7455;HTU21D;3769;51.208;4.454;2024-03-22T00:49:09;12.2;98.1
7455;HTU21D;3769;51.208;4.454;2024-03-22T00:54:09;12.2;98.1
7455;HTU21D;3769;51.208;4.454;2024-03-22T00:59:09;12.2;98.1
7455;HTU21D;3769;51.208;4.454;2024-03-22T01:04:09;12.3;98.1
7455;HTU21D;3769;51.208;4.454;2024-03-22T01:09:09;12.3;98.1
7455;HTU21D;3769;51.208;4.454;2024-03-22T01:14:09;12.2;98.1
7455;HTU21D;3769;51.208;4.454;2024-03-22T01:19:09;12.2;98.1
7455;HTU21D;3769;51.208;4.454;2024-03-22T01:24:09;12.1;98.1
7455;HTU21D;3769;51.208;4.454;2024-03-22T01:29:09;12;98.1
7455;HTU21D;3769;51.208;4.454;2024-03-22T01:34:09;12.1;98.1
7455;HTU21D;3769;51.208;4.454;2024-03-22T01:39:09;12;98.1
7455;HTU21D;3769;51.208;4.454;2024-03-22T01:44:09;12;98.1
7455;HTU21D;3769;51.208;4.454;2024-03-22T01:49:09;12;98
7455;HTU21D;3769;51.208;4.454;2024-03-22T01:54:09;12;98
7455;HTU21D;3769;51.208;4.454;2024-03-22T01:59:09;12.1;98.1
7455;HTU21D;3769;51.208;4.454;2024-03-22T02:04:09;12;98
7455;HTU21D;3769;51.208;4.454;2024-03-22T02:09:09;12;98.1
7455;HTU21D;3769;51.208;4.454;2024-03-22T02:14:09;12;98
7455;HTU21D;3769;51.208;4.454;2024-03-22T02:19:09;12;98.1
7455;HTU21D;3769;51.208;4.454;2024-03-22T02:24:09;11.9;98
7455;HTU21D;3769;51.208;4.454;2024-03-22T02:29:09;12.2;98.1
7455;HTU21D;3769;51.208;4.454;2024-03-22T02:34:09;11.9;98
7455;HTU21D;3769;51.208;4.454;2024-03-22T02:39:09;11.8;98
7455;HTU21D;3769;51.208;4.454;2024-03-22T02:44:09;11.9;98
7455;HTU21D;3769;51.208;4.454;2024-03-22T02:49:09;11.9;98
7455;HTU21D;3769;51.208;4.454;2024-03-22T02:54:09;11.9;98
7455;HTU21D;3769;51.208;4.454;2024-03-22T02:59:09;11.7;98
7455;HTU21D;3769;51.208;4.454;2024-03-22T03:04:09;11.8;98
7455;HTU21D;3769;51.208;4.454;2024-03-22T03:09:09;11.8;98
7455;HTU21D;3769;51.208;4.454;2024-03-22T03:14:09;11.7;98
7455;HTU21D;3769;51.208;4.454;2024-03-22T03:19:09;11.7;98
7455;HTU21D;3769;51.208;4.454;2024-03-22T03:24:09;11.7;98
7455;HTU21D;3769;51.208;4.454;2024-03-22T03:29:09;11.4;98
7455;HTU21D;3769;51.208;4.454;2024-03-22T03:34:09;11.4;98
7455;HTU21D;3769;51.208;4.454;2024-03-22T03:39:09;11.6;98
7455;HTU21D;3769;51.208;4.454;2024-03-22T03:44:09;11.5;98
7455;HTU21D;3769;51.208;4.454;2024-03-22T03:49:09;11.6;98
7455;HTU21D;3769;51.208;4.454;2024-03-22T03:54:09;11.3;97.9
7455;HTU21D;3769;51.208;4.454;2024-03-22T03:59:09;11.3;98
7455;HTU21D;3769;51.208;4.454;2024-03-22T04:04:09;11.6;98
7455;HTU21D;3769;51.208;4.454;2024-03-22T04:09:09;11.3;98
7455;HTU21D;3769;51.208;4.454;2024-03-22T04:14:09;11.5;98
7455;HTU21D;3769;51.208;4.454;2024-03-22T04:19:09;11.4;98
7455;HTU21D;3769;51.208;4.454;2024-03-22T04:24:09;11.4;98
7455;HTU21D;3769;51.208;4.454;2024-03-22T04:29:09;11.3;97.9
7455;HTU21D;3769;51.208;4.454;2024-03-22T04:34:09;11.4;98
7455;HTU21D;3769;51.208;4.454;2024-03-22T04:39:09;11.3;97.9
7455;HTU21D;3769;51.208;4.454;2024-03-22T04:44:09;11.3;97.9
7455;HTU21D;3769;51.208;4.454;2024-03-22T04:49:09;11.2;97.9
7455;HTU21D;3769;51.208;4.454;2024-03-22T04:54:09;11.1;97.9
7455;HTU21D;3769;51.208;4.454;2024-03-22T04:59:09;11.1;97.9
7455;HTU21D;3769;51.208;4.454;2024-03-22T05:04:09;11.1;97.9
7455;HTU21D;3769;51.208;4.454;2024-03-22T05:09:09;11.1;97.9
7455;HTU21D;3769;51.208;4.454;2024-03-22T05:14:09;11;97.9
7455;HTU21D;3769;51.208;4.454;2024-03-22T05:19:09;11.1;97.9
7455;HTU21D;3769;51.208;4.454;2024-03-22T05:24:09;10.9;97.9
7455;HTU21D;3769;51.208;4.454;2024-03-22T05:29:09;10.9;97.9
7455;HTU21D;3769;51.208;4.454;2024-03-22T05:34:09;11.1;97.9
7455;HTU21D;3769;51.208;4.454;2024-03-22T05:39:09;11;97.9
7455;HTU21D;3769;51.208;4.454;2024-03-22T05:44:09;11;97.9
7455;HTU21D;3769;51.208;4.454;2024-03-22T05:49:09;11;97.9
7455;HTU21D;3769;51.208;4.454;2024-03-22T05:54:09;11;97.9
7455;HTU21D;3769;51.208;4.454;2024-03-22T05:59:09;11.1;97.9
7455;HTU21D;3769;51.208;4.454;2024-03-22T06:04:09;11;97.9
7455;HTU21D;3769;51.208;4.454;2024-03-22T06:09:09;11.1;97.9
7455;HTU21D;3769;51.208;4.454;2024-03-22T06:14:09;11.2;97.9
7455;HTU21D;3769;51.208;4.454;2024-03-22T06:19:09;11.1;97.9
7455;HTU21D;3769;51.208;4.454;2024-03-22T06:24:09;11;97.9
7455;HTU21D;3769;51.208;4.454;2024-03-22T06:29:09;11.2;97.9
7455;HTU21D;3769;51.208;4.454;2024-03-22T06:34:09;11.2;97.9
7455;HTU21D;3769;51.208;4.454;2024-03-22T06:39:09;11.1;97.9
7455;HTU21D;3769;51.208;4.454;2024-03-22T06:44:09;11;97.9
7455;HTU21D;3769;51.208;4.454;2024-03-22T06:49:09;11;97.9
7455;HTU21D;3769;51.208;4.454;2024-03-22T06:54:09;11.2;97.9
7455;HTU21D;3769;51.208;4.454;2024-03-22T06:59:09;11;97.9
7455;HTU21D;3769;51.208;4.454;2024-03-22T07:04:09;11;97.9
7455;HTU21D;3769;51.208;4.454;2024-03-22T07:09:09;11.2;97.9
7455;HTU21D;3769;51.208;4.454;2024-03-22T07:14:09;11.1;97.9
7455;HTU21D;3769;51.208;4.454;2024-03-22T07:19:09;11.2;97.9
7455;HTU21D;3769;51.208;4.454;2024-03-22T07:24:09;11.2;97.9
7455;HTU21D;3769;51.208;4.454;2024-03-22T07:29:09;11.1;97.9
7455;HTU21D;3769;51.208;4.454;2024-03-22T07:34:09;11.3;97.9
7455;HTU21D;3769;51.208;4.454;2024-03-22T07:39:09;11.3;97.9
7455;HTU21D;3769;51.208;4.454;2024-03-22T07:44:09;11.2;97.9
7455;HTU21D;3769;51.208;4.454;2024-03-22T07:49:09;11.2;97.9
7455;HTU21D;3769;51.208;4.454;2024-03-22T07:54:09;11.6;98
7455;HTU21D;3769;51.208;4.454;2024-03-22T07:59:09;11.4;98
7455;HTU21D;3769;51.208;4.454;2024-03-22T08:04:09;11.5;98
7455;HTU21D;3769;51.208;4.454;2024-03-22T08:09:09;11.5;98
7455;HTU21D;3769;51.208;4.454;2024-03-22T08:14:09;11.7;98
7455;HTU21D;3769;51.208;4.454;2024-03-22T08:19:09;11.8;98
7455;HTU21D;3769;51.208;4.454;2024-03-22T08:24:09;11.8;98
7455;HTU21D;3769;51.208;4.454;2024-03-22T08:29:09;11.7;98
7455;HTU21D;3769;51.208;4.454;2024-03-22T08:34:09;11.9;98
7455;HTU21D;3769;51.208;4.454;2024-03-22T08:39:09;12.2;98.1
7455;HTU21D;3769;51.208;4.454;2024-03-22T08:44:09;12;98.1
7455;HTU21D;3769;51.208;4.454;2024-03-22T08:49:09;12.1;98.1
7455;HTU21D;3769;51.208;4.454;2024-03-22T08:54:09;12;98.1
7455;HTU21D;3769;51.208;4.454;2024-03-22T08:59:09;12;98
7455;HTU21D;3769;51.208;4.454;2024-03-22T09:04:09;12.1;98.1
7455;HTU21D;3769;51.208;4.454;2024-03-22T09:09:09;12.1;98.1
7455;HTU21D;3769;51.208;4.454;2024-03-22T09:14:09;12;98
7455;HTU21D;3769;51.208;4.454;2024-03-22T09:19:09;11.9;98
7455;HTU21D;3769;51.208;4.454;2024-03-22T09:24:09;12;98
7455;HTU21D;3769;51.208;4.454;2024-03-22T09:29:09;12;98
7455;HTU21D;3769;51.208;4.454;2024-03-22T09:34:09;11.9;98
7455;HTU21D;3769;51.208;4.454;2024-03-22T09:39:09;12;98
7455;HTU21D;3769;51.208;4.454;2024-03-22T09:44:12;12;98.1
7455;HTU21D;3769;51.208;4.454;2024-03-22T09:49:09;12.1;98.1
7455;HTU21D;3769;51.208;4.454;2024-03-22T09:54:09;12;98
7455;HTU21D;3769;51.208;4.454;2024-03-22T09:59:09;11.9;98
7455;HTU21D;3769;51.208;4.454;2024-03-22T10:04:09;11.9;98
7455;HTU21D;3769;51.208;4.454;2024-03-22T10:09:09;11.9;98
7455;HTU21D;3769;51.208;4.454;2024-03-22T10:14:09;12;98.1
7455;HTU21D;3769;51.208;4.454;2024-03-22T10:19:09;12;98
7455;HTU21D;3769;51.208;4.454;2024-03-22T10:24:09;12;98
7455;HTU21D;3769;51.208;4.454;2024-03-22T10:29:10;12;98.1
7455;HTU21D;3769;51.208;4.454;2024-03-22T10:34:09;12.1;98.1
7455;HTU21D;3769;51.208;4.454;2024-03-22T10:39:09;11.8;98
7455;HTU21D;3769;51.208;4.454;2024-03-22T10:44:09;11.9;98
7455;HTU21D;3769;51.208;4.454;2024-03-22T10:49:09;11.9;98
7455;HTU21D;3769;51.208;4.454;2024-03-22T10:54:09;11.9;98
7455;HTU21D;3769;51.208;4.454;2024-03-22T10:59:12;11.7;98
7455;HTU21D;3769;51.208;4.454;2024-03-22T11:04:09;11.8;98
7455;HTU21D;3769;51.208;4.454;2024-03-22T11:09:09;11.8;98
7455;HTU21D;3769;51.208;4.454;2024-03-22T11:14:09;11.7;98
7455;HTU21D;3769;51.208;4.454;2024-03-22T11:19:09;11.7;98
7455;HTU21D;3769;51.208;4.454;2024-03-22T11:24:09;11.6;98
7455;HTU21D;3769;51.208;4.454;2024-03-22T11:29:09;11.6;98
7455;HTU21D;3769;51.208;4.454;2024-03-22T11:34:09;11.7;98
7455;HTU21D;3769;51.208;4.454;2024-03-22T11:39:09;11.6;98
7455;HTU21D;3769;51.208;4.454;2024-03-22T11:44:09;11.7;98
7455;HTU21D;3769;51.208;4.454;2024-03-22T11:49:09;11.6;98
7455;HTU21D;3769;51.208;4.454;2024-03-22T11:54:09;11.7;98
7455;HTU21D;3769;51.208;4.454;2024-03-22T11:59:09;11.7;98
7455;HTU21D;3769;51.208;4.454;2024-03-22T12:04:09;11.7;98
7455;HTU21D;3769;51.208;4.454;2024-03-22T12:09:09;11.7;98
7455;HTU21D;3769;51.208;4.454;2024-03-22T12:14:09;11.6;98
7455;HTU21D;3769;51.208;4.454;2024-03-22T12:19:09;11.6;98
7455;HTU21D;3769;51.208;4.454;2024-03-22T12:24:09;11.7;98
7455;HTU21D;3769;51.208;4.454;2024-03-22T12:29:09;11.7;98
7455;HTU21D;3769;51.208;4.454;2024-03-22T12:34:09;11.8;98
7455;HTU21D;3769;51.208;4.454;2024-03-22T12:39:09;11.8;98
7455;HTU21D;3769;51.208;4.454;2024-03-22T12:44:09;11.5;98
7455;HTU21D;3769;51.208;4.454;2024-03-22T12:49:09;11.5;98
7455;HTU21D;3769;51.208;4.454;2024-03-22T12:54:09;11.7;98
7455;HTU21D;3769;51.208;4.454;2024-03-22T12:59:09;11.6;98
7455;HTU21D;3769;51.208;4.454;2024-03-22T13:04:09;11.5;98
7455;HTU21D;3769;51.208;4.454;2024-03-22T13:09:09;11.4;98
7455;HTU21D;3769;51.208;4.454;2024-03-22T13:14:09;11.3;97.9
7455;HTU21D;3769;51.208;4.454;2024-03-22T13:19:09;11.4;98
7455;HTU21D;3769;51.208;4.454;2024-03-22T13:24:09;11.3;97.9
7455;HTU21D;3769;51.208;4.454;2024-03-22T13:29:09;11.4;98
7455;HTU21D;3769;51.208;4.454;2024-03-22T13:34:09;11.2;97.9
7455;HTU21D;3769;51.208;4.454;2024-03-22T13:39:09;11.2;97.9
7455;HTU21D;3769;51.208;4.454;2024-03-22T13:44:09;11;97.9
7455;HTU21D;3769;51.208;4.454;2024-03-22T13:49:13;11;97.9
7455;HTU21D;3769;51.208;4.454;2024-03-22T13:54:10;11.3;97.9
7455;HTU21D;3769;51.208;4.454;2024-03-22T13:59:09;11.1;97.9
7455;HTU21D;3769;51.208;4.454;2024-03-22T14:04:09;11.1;97.9
7455;HTU21D;3769;51.208;4.454;2024-03-22T14:09:09;11.2;97.9
7455;HTU21D;3769;51.208;4.454;2024-03-22T14:14:09;11.1;97.9
7455;HTU21D;3769;51.208;4.454;2024-03-22T14:19:09;11.1;97.9
7455;HTU21D;3769;51.208;4.454;2024-03-22T14:24:09;11.1;97.9
7455;HTU21D;3769;51.208;4.454;2024-03-22T14:29:09;11.2;97.9
7455;HTU21D;3769;51.208;4.454;2024-03-22T14:34:09;11.3;97.9
7455;HTU21D;3769;51.208;4.454;2024-03-22T14:39:09;11.3;98
7455;HTU21D;3769;51.208;4.454;2024-03-22T14:44:09;11.2;97.9
7455;HTU21D;3769;51.208;4.454;2024-03-22T14:49:09;11.1;97.9
7455;HTU21D;3769;51.208;4.454;2024-03-22T14:54:09;10.9;97.9
7455;HTU21D;3769;51.208;4.454;2024-03-22T14:59:09;10.9;97.9
7455;HTU21D;3769;51.208;4.454;2024-03-22T15:04:09;10.7;97.9
7455;HTU21D;3769;51.208;4.454;2024-03-22T15:09:09;10.8;97.9
7455;HTU21D;3769;51.208;4.454;2024-03-22T15:14:09;11.1;97.9
7455;HTU21D;3769;51.208;4.454;2024-03-22T15:19:09;11.1;97.9
7455;HTU21D;3769;51.208;4.454;2024-03-22T15:24:09;11.1;97.9
7455;HTU21D;3769;51.208;4.454;2024-03-22T15:29:09;11;97.9
7455;HTU21D;3769;51.208;4.454;2024-03-22T15:34:09;10.8;97.9
7455;HTU21D;3769;51.208;4.454;2024-03-22T15:39:09;10.8;97.9
7455;HTU21D;3769;51.208;4.454;2024-03-22T15:44:09;10.7;97.9
7455;HTU21D;3769;51.208;4.454;2024-03-22T15:49:09;10.6;97.8
7455;HTU21D;3769;51.208;4.454;2024-03-22T15:54:09;10.7;97.9
7455;HTU21D;3769;51.208;4.454;2024-03-22T15:59:09;10.8;97.9
7455;HTU21D;3769;51.208;4.454;2024-03-22T16:04:09;10.5;97.8
7455;HTU21D;3769;51.208;4.454;2024-03-22T16:09:09;10.6;97.8
7455;HTU21D;3769;51.208;4.454;2024-03-22T16:14:09;10.7;97.9
7455;HTU21D;3769;51.208;4.454;2024-03-22T16:19:09;10.4;97.8
7455;HTU21D;3769;51.208;4.454;2024-03-22T16:24:09;10.3;97.8
7455;HTU21D;3769;51.208;4.454;2024-03-22T16:29:09;10;97.7
7455;HTU21D;3769;51.208;4.454;2024-03-22T16:34:09;10.1;97.8
7455;HTU21D;3769;51.208;4.454;2024-03-22T16:39:09;9.9;97.7
7455;HTU21D;3769;51.208;4.454;2024-03-22T16:44:09;10;97.7
7455;HTU21D;3769;51.208;4.454;2024-03-22T16:49:09;9.9;97.7
7455;HTU21D;3769;51.208;4.454;2024-03-22T16:54:09;9.9;97.7
7455;HTU21D;3769;51.208;4.454;2024-03-22T16:59:09;9.8;97.7
7455;HTU21D;3769;51.208;4.454;2024-03-22T17:04:09;9.6;97.7
7455;HTU21D;3769;51.208;4.454;2024-03-22T17:09:09;9.7;97.7
7455;HTU21D;3769;51.208;4.454;2024-03-22T17:14:09;9.8;97.7
7455;HTU21D;3769;51.208;4.454;2024-03-22T17:19:09;9.7;97.7
7455;HTU21D;3769;51.208;4.454;2024-03-22T17:24:09;9.6;97.7
7455;HTU21D;3769;51.208;4.454;2024-03-22T17:29:09;9.8;97.7
7455;HTU21D;3769;51.208;4.454;2024-03-22T17:34:09;9.8;97.7
7455;HTU21D;3769;51.208;4.454;2024-03-22T17:39:09;9.9;97.7
7455;HTU21D;3769;51.208;4.454;2024-03-22T17:44:09;9.9;97.7
7455;HTU21D;3769;51.208;4.454;2024-03-22T17:49:09;10.1;97.8
7455;HTU21D;3769;51.208;4.454;2024-03-22T17:54:09;9.9;97.7
7455;HTU21D;3769;51.208;4.454;2024-03-22T17:59:09;9.8;97.7
7455;HTU21D;3769;51.208;4.454;2024-03-22T18:04:09;9.8;97.7
7455;HTU21D;3769;51.208;4.454;2024-03-22T18:09:09;9.7;97.7
7455;HTU21D;3769;51.208;4.454;2024-03-22T18:14:09;9.9;97.7
7455;HTU21D;3769;51.208;4.454;2024-03-22T18:19:09;10.4;97.8
7455;HTU21D;3769;51.208;4.454;2024-03-22T18:24:09;10.4;97.8
7455;HTU21D;3769;51.208;4.454;2024-03-22T18:29:09;10.4;97.8
7455;HTU21D;3769;51.208;4.454;2024-03-22T18:34:09;10.1;97.8
7455;HTU21D;3769;51.208;4.454;2024-03-22T18:39:09;10.4;97.8
7455;HTU21D;3769;51.208;4.454;2024-03-22T18:44:09;10.3;97.8
7455;HTU21D;3769;51.208;4.454;2024-03-22T18:49:09;9.9;97.7
7455;HTU21D;3769;51.208;4.454;2024-03-22T18:54:09;9.9;97.7
7455;HTU21D;3769;51.208;4.454;2024-03-22T18:59:09;9.9;97.7
7455;HTU21D;3769;51.208;4.454;2024-03-22T19:04:09;10.1;97.8
7455;HTU21D;3769;51.208;4.454;2024-03-22T19:09:09;9.9;97.7
7455;HTU21D;3769;51.208;4.454;2024-03-22T19:14:09;9.9;97.7
7455;HTU21D;3769;51.208;4.454;2024-03-22T19:19:09;10.2;97.8
7455;HTU21D;3769;51.208;4.454;2024-03-22T19:24:09;10.2;97.8
7455;HTU21D;3769;51.208;4.454;2024-03-22T19:29:11;10;97.7
7455;HTU21D;3769;51.208;4.454;2024-03-22T19:34:09;10.1;97.8
7455;HTU21D;3769;51.208;4.454;2024-03-22T19:39:10;10.2;97.8
7455;HTU21D;3769;51.208;4.454;2024-03-22T19:44:09;9.8;97.7
7455;HTU21D;3769;51.208;4.454;2024-03-22T19:49:09;9.8;97.7
7455;HTU21D;3769;51.208;4.454;2024-03-22T19:54:09;10;97.8
7455;HTU21D;3769;51.208;4.454;2024-03-22T19:59:09;10;97.7
7455;HTU21D;3769;51.208;4.454;2024-03-22T20:04:09;9.8;97.7
7455;HTU21D;3769;51.208;4.454;2024-03-22T20:09:09;10;97.8
7455;HTU21D;3769;51.208;4.454;2024-03-22T20:14:09;10;97.7
7455;HTU21D;3769;51.208;4.454;2024-03-22T20:19:09;9.8;97.7
7455;HTU21D;3769;51.208;4.454;2024-03-22T20:24:09;10;97.7
7455;HTU21D;3769;51.208;4.454;2024-03-22T20:29:09;9.9;97.7
7455;HTU21D;3769;51.208;4.454;2024-03-22T20:34:09;10;97.8
